createdAt,value
2018-07-27T00:02:09.985Z,27.61
2018-07-27T00:04:40.500Z,27.64
2018-07-27T00:07:11.620Z,27.62
2018-07-27T00:09:42.354Z,27.53
2018-07-27T00:12:13.259Z,27.50
2018-07-27T00:14:43.933Z,27.55
2018-07-27T00:17:14.749Z,27.52
2018-07-27T00:19:45.319Z,27.69
2018-07-27T00:22:15.984Z,27.75
2018-07-27T00:24:46.645Z,27.65
2018-07-27T00:27:17.432Z,27.67
2018-07-27T00:29:48.092Z,27.56
2018-07-27T00:32:19.070Z,27.54
2018-07-27T00:34:49.712Z,27.16
2018-07-27T00:37:20.857Z,27.19
2018-07-27T00:39:51.480Z,27.18
2018-07-27T00:42:22.192Z,27.49
2018-07-27T00:44:52.673Z,27.54
2018-07-27T00:47:23.457Z,27.34
2018-07-27T00:49:54.004Z,27.33
2018-07-27T00:52:24.676Z,27.28
2018-07-27T00:54:55.476Z,27.23
2018-07-27T00:57:26.147Z,27.12
2018-07-27T00:59:56.840Z,27.12
2018-07-27T01:02:27.752Z,27.11
2018-07-27T01:04:58.396Z,26.98
2018-07-27T01:07:29.069Z,26.91
2018-07-27T01:09:59.764Z,26.92
2018-07-27T01:12:30.476Z,26.85
2018-07-27T01:15:01.036Z,26.74
2018-07-27T01:17:31.657Z,26.78
2018-07-27T01:20:02.362Z,26.81
2018-07-27T01:22:33.309Z,26.61
2018-07-27T01:25:03.873Z,26.49
2018-07-27T01:27:34.545Z,26.58
2018-07-27T01:30:05.649Z,26.55
2018-07-27T01:32:36.273Z,26.52
2018-07-27T01:35:06.997Z,26.27
2018-07-27T01:37:37.880Z,26.27
2018-07-27T01:40:08.795Z,26.53
2018-07-27T01:42:39.361Z,26.43
2018-07-27T01:45:09.970Z,26.63
2018-07-27T01:47:40.676Z,26.60
2018-07-27T01:50:11.369Z,26.55
2018-07-27T01:52:42.061Z,26.24
2018-07-27T01:55:12.722Z,26.32
2018-07-27T01:57:43.456Z,26.31
2018-07-27T02:00:13.780Z,25.89
2018-07-27T02:02:44.777Z,25.91
2018-07-27T02:05:15.396Z,25.93
2018-07-27T02:07:46.237Z,26.02
2018-07-27T02:10:16.922Z,25.95
2018-07-27T02:12:47.960Z,26.22
2018-07-27T02:15:18.548Z,26.24
2018-07-27T02:17:49.203Z,26.28
2018-07-27T02:20:19.797Z,26.53
2018-07-27T02:22:51.304Z,26.42
2018-07-27T02:25:21.869Z,26.39
2018-07-27T02:27:52.817Z,26.41
2018-07-27T02:30:23.446Z,26.58
2018-07-27T02:32:55.137Z,26.45
2018-07-27T02:35:25.910Z,26.24
2018-07-27T02:37:56.668Z,26.19
2018-07-27T02:40:27.373Z,26.42
2018-07-27T02:42:58.076Z,26.54
2018-07-27T02:45:28.669Z,26.74
2018-07-27T02:47:59.545Z,26.51
2018-07-27T02:50:30.153Z,26.37
2018-07-27T02:53:00.981Z,26.36
2018-07-27T02:55:31.610Z,26.51
2018-07-27T02:58:02.286Z,26.49
2018-07-27T03:00:32.980Z,26.33
2018-07-27T03:03:04.054Z,26.37
2018-07-27T03:05:34.634Z,26.64
2018-07-27T03:08:05.360Z,26.55
2018-07-27T03:10:36.071Z,26.30
2018-07-27T03:13:06.741Z,26.39
2018-07-27T03:15:37.383Z,26.49
2018-07-27T03:18:08.145Z,26.39
2018-07-27T03:20:38.633Z,26.63
2018-07-27T03:23:09.376Z,26.60
2018-07-27T03:25:40.369Z,26.49
2018-07-27T03:28:11.139Z,26.45
2018-07-27T03:30:41.779Z,26.58
2018-07-27T03:33:12.705Z,26.31
2018-07-27T03:35:43.292Z,26.39
2018-07-27T03:38:14.013Z,26.03
2018-07-27T03:40:44.600Z,26.30
2018-07-27T03:43:15.477Z,25.95
2018-07-27T03:45:46.198Z,26.04
2018-07-27T03:48:16.918Z,26.15
2018-07-27T03:50:47.261Z,26.40
2018-07-27T03:53:17.949Z,26.22
2018-07-27T03:55:48.530Z,26.09
2018-07-27T03:58:19.153Z,25.92
2018-07-27T04:00:49.837Z,26.24
2018-07-27T04:03:20.568Z,26.29
2018-07-27T04:05:51.112Z,25.65
2018-07-27T04:08:21.856Z,26.22
2018-07-27T04:10:52.594Z,26.58
2018-07-27T04:13:23.334Z,26.86
2018-07-27T04:15:54.006Z,27.08
2018-07-27T04:18:24.697Z,27.09
2018-07-27T04:20:55.565Z,26.73
2018-07-27T04:23:26.548Z,26.58
2018-07-27T04:25:57.197Z,26.86
2018-07-27T04:28:27.896Z,26.61
2018-07-27T04:30:58.618Z,26.80
2018-07-27T04:33:29.454Z,27.12
2018-07-27T04:36:00.091Z,26.88
2018-07-27T04:38:30.836Z,26.89
2018-07-27T04:41:01.546Z,26.95
2018-07-27T04:43:32.253Z,27.11
2018-07-27T04:46:02.717Z,27.02
2018-07-27T04:48:33.344Z,27.02
2018-07-27T04:51:03.924Z,27.32
2018-07-27T04:53:34.975Z,27.09
2018-07-27T04:56:05.809Z,27.23
2018-07-27T04:58:36.610Z,27.37
2018-07-27T05:01:07.322Z,27.30
2018-07-27T05:03:38.180Z,27.57
2018-07-27T05:06:08.773Z,27.45
2018-07-27T05:08:44.542Z,27.78
2018-07-27T05:11:14.985Z,27.82
2018-07-27T05:13:45.781Z,27.43
2018-07-27T05:16:16.421Z,27.53
2018-07-27T05:18:47.185Z,27.44
2018-07-27T05:21:17.795Z,27.32
2018-07-27T05:23:48.480Z,28.09
2018-07-27T05:26:19.100Z,28.09
2018-07-27T05:28:50.425Z,28.08
2018-07-27T05:31:21.039Z,28.04
2018-07-27T05:33:51.680Z,28.11
2018-07-27T05:36:22.313Z,28.24
2018-07-27T05:38:53.561Z,29.06
2018-07-27T05:41:24.184Z,29.32
2018-07-27T05:43:55.178Z,29.27
2018-07-27T05:46:25.813Z,29.22
2018-07-27T05:48:56.585Z,29.19
2018-07-27T05:51:27.229Z,29.68
2018-07-27T05:53:57.939Z,29.90
2018-07-27T05:56:28.745Z,30.59
2018-07-27T05:58:59.576Z,30.99
2018-07-27T06:01:30.291Z,31.67
2018-07-27T06:04:01.145Z,32.52
2018-07-27T06:06:31.737Z,32.36
2018-07-27T06:09:02.505Z,31.34
2018-07-27T06:11:33.081Z,31.64
2018-07-27T06:14:04.068Z,30.98
2018-07-27T06:16:34.777Z,30.65
2018-07-27T06:19:05.610Z,30.73
2018-07-27T06:21:36.141Z,31.17
2018-07-27T06:24:07.008Z,31.45
2018-07-27T06:26:37.559Z,31.42
2018-07-27T06:29:08.271Z,31.64
2018-07-27T06:31:38.948Z,32.04
2018-07-27T06:34:09.713Z,32.01
2018-07-27T06:36:40.353Z,32.12
2018-07-27T06:39:12.075Z,32.89
2018-07-27T06:41:42.572Z,33.53
2018-07-27T06:44:13.477Z,33.68
2018-07-27T06:46:44.104Z,34.24
2018-07-27T06:49:14.797Z,33.79
2018-07-27T06:51:45.533Z,33.01
2018-07-27T06:54:16.157Z,33.26
2018-07-27T06:56:47.105Z,33.39
2018-07-27T06:59:17.785Z,32.57
2018-07-27T07:01:48.461Z,32.49
2018-07-27T07:04:19.137Z,32.62
2018-07-27T07:06:49.872Z,33.74
2018-07-27T07:09:20.776Z,34.29
2018-07-27T07:11:51.457Z,33.96
2018-07-27T07:14:22.281Z,33.40
2018-07-27T07:16:52.828Z,33.72
2018-07-27T07:19:23.760Z,34.33
2018-07-27T07:21:54.385Z,34.77
2018-07-27T07:24:25.161Z,35.26
2018-07-27T07:26:56.009Z,35.34
2018-07-27T07:29:27.977Z,35.62
2018-07-27T07:31:58.604Z,35.82
2018-07-27T07:34:29.279Z,34.94
2018-07-27T07:36:59.789Z,36.03
2018-07-27T07:39:30.036Z,35.81
2018-07-27T07:42:00.839Z,36.25
2018-07-27T07:44:30.811Z,35.91
2018-07-27T07:47:01.865Z,36.11
2018-07-27T07:49:32.603Z,35.75
2018-07-27T07:52:04.589Z,35.44
2018-07-27T07:54:35.397Z,35.93
2018-07-27T07:57:06.289Z,36.03
2018-07-27T07:59:36.824Z,35.98
2018-07-27T08:02:08.081Z,36.75
2018-07-27T08:04:38.692Z,36.38
2018-07-27T08:07:09.632Z,36.23
2018-07-27T08:09:40.323Z,36.40
2018-07-27T08:12:11.121Z,36.33
2018-07-27T08:14:41.937Z,37.04
2018-07-27T08:17:12.615Z,36.31
2018-07-27T08:19:43.407Z,36.79
2018-07-27T08:22:14.508Z,36.86
2018-07-27T08:24:45.284Z,36.55
2018-07-27T08:27:16.106Z,36.43
2018-07-27T08:29:46.959Z,36.55
2018-07-27T08:32:17.721Z,36.75
2018-07-27T08:34:48.433Z,36.57
2018-07-27T08:37:19.244Z,37.03
2018-07-27T08:39:51.463Z,37.84
2018-07-27T08:42:22.112Z,37.52
2018-07-27T08:44:52.839Z,36.66
2018-07-27T08:47:23.691Z,37.10
2018-07-27T08:49:54.189Z,37.27
2018-07-27T08:52:24.897Z,38.01
2018-07-27T08:54:55.665Z,37.79
2018-07-27T08:57:26.569Z,37.48
2018-07-27T08:59:57.973Z,37.85
2018-07-27T09:02:28.508Z,37.40
2018-07-27T09:04:59.172Z,37.24
2018-07-27T09:07:29.784Z,37.30
2018-07-27T09:10:00.385Z,37.64
2018-07-27T09:12:31.229Z,37.39
2018-07-27T09:15:02.026Z,37.10
2018-07-27T09:17:32.917Z,37.21
2018-07-27T09:20:03.721Z,37.04
2018-07-27T09:22:34.337Z,36.72
2018-07-27T09:25:05.097Z,36.44
2018-07-27T09:27:35.686Z,36.10
2018-07-27T09:30:06.647Z,36.71
2018-07-27T09:32:37.308Z,37.21
2018-07-27T09:35:07.989Z,36.13
2018-07-27T09:37:38.324Z,37.41
2018-07-27T09:40:09.025Z,37.31
2018-07-27T09:42:40.023Z,37.11
2018-07-27T09:45:10.722Z,36.86
2018-07-27T09:47:41.453Z,36.73
2018-07-27T09:50:11.917Z,37.50
2018-07-27T09:52:42.789Z,37.81
2018-07-27T09:55:13.522Z,37.85
2018-07-27T09:57:44.494Z,37.77
2018-07-27T10:00:16.233Z,37.81
2018-07-27T10:02:46.825Z,37.66
2018-07-27T10:05:16.952Z,37.30
2018-07-27T10:07:47.649Z,38.32
2018-07-27T10:10:18.253Z,37.95
2018-07-27T10:12:49.195Z,38.50
2018-07-27T10:15:19.965Z,37.83
2018-07-27T10:17:50.449Z,37.85
2018-07-27T10:20:21.131Z,38.12
2018-07-27T10:22:51.981Z,37.90
2018-07-27T10:25:22.913Z,38.41
2018-07-27T10:27:53.845Z,39.16
2018-07-27T10:30:24.089Z,39.31
2018-07-27T10:32:54.797Z,39.43
2018-07-27T10:35:25.639Z,39.49
2018-07-27T10:37:56.425Z,39.63
2018-07-27T10:40:26.688Z,40.30
2018-07-27T10:42:57.404Z,40.60
2018-07-27T10:45:27.897Z,40.68
2018-07-27T10:47:58.661Z,39.69
2018-07-27T10:50:29.292Z,38.49
2018-07-27T10:53:00.068Z,37.49
2018-07-27T10:55:30.809Z,37.69
2018-07-27T10:58:01.299Z,37.30
2018-07-27T11:00:31.808Z,37.01
2018-07-27T11:03:02.349Z,37.12
2018-07-27T11:05:32.588Z,36.81
2018-07-27T11:08:03.101Z,36.69
2018-07-27T11:10:33.416Z,36.73
2018-07-27T11:13:03.913Z,37.01
2018-07-27T11:15:34.274Z,37.00
2018-07-27T11:18:06.039Z,36.85
2018-07-27T11:20:36.313Z,36.91
2018-07-27T11:23:06.627Z,36.92
2018-07-27T11:25:37.259Z,36.95
2018-07-27T11:28:07.513Z,36.63
2018-07-27T11:30:37.916Z,35.79
2018-07-27T11:33:08.325Z,35.66
2018-07-27T11:35:38.865Z,35.17
2018-07-27T11:38:09.577Z,34.74
2018-07-27T11:40:40.430Z,34.29
2018-07-27T11:43:11.219Z,34.09
2018-07-27T11:45:41.776Z,34.16
2018-07-27T11:48:12.415Z,33.60
2018-07-27T11:50:43.116Z,33.21
2018-07-27T11:53:13.766Z,33.61
2018-07-27T11:55:44.472Z,33.63
2018-07-27T11:58:15.139Z,33.47
2018-07-27T12:00:46.227Z,33.60
2018-07-27T12:03:16.844Z,33.72
2018-07-27T12:05:47.829Z,34.10
2018-07-27T12:08:18.571Z,34.03
2018-07-27T12:10:49.432Z,34.39
2018-07-27T12:13:19.982Z,34.28
2018-07-27T12:15:50.357Z,33.84
2018-07-27T12:18:20.761Z,34.35
2018-07-27T12:20:51.270Z,34.33
2018-07-27T12:23:22.249Z,34.71
2018-07-27T12:25:52.666Z,34.83
2018-07-27T12:28:23.254Z,35.64
2018-07-27T12:30:53.749Z,36.19
2018-07-27T12:33:24.373Z,36.99
2018-07-27T12:35:56.170Z,37.65
2018-07-27T12:38:27.140Z,38.65
2018-07-27T12:40:57.702Z,38.99
2018-07-27T12:43:29.333Z,39.27
2018-07-27T12:46:00.094Z,40.25
2018-07-27T12:48:30.681Z,38.92
2018-07-27T12:51:01.225Z,39.43
2018-07-27T12:53:32.122Z,38.12
2018-07-27T12:56:02.802Z,37.46
2018-07-27T12:58:33.073Z,37.57
2018-07-27T13:01:03.616Z,36.70
2018-07-27T13:03:34.495Z,37.53
2018-07-27T13:06:05.178Z,36.91
2018-07-27T13:08:35.965Z,36.94
2018-07-27T13:11:06.497Z,37.41
2018-07-27T13:13:37.349Z,36.48
2018-07-27T13:16:08.505Z,36.11
2018-07-27T13:18:39.344Z,36.57
2018-07-27T13:21:09.634Z,35.70
2018-07-27T13:23:49.954Z,35.35
2018-07-27T13:28:51.501Z,37.00
2018-07-27T13:31:58.203Z,37.20
2018-07-27T13:34:51.437Z,36.85
2018-07-27T13:37:27.185Z,37.12
2018-07-27T13:39:59.199Z,37.33
2018-07-27T13:42:30.669Z,37.37
2018-07-27T13:45:01.372Z,37.42
2018-07-27T13:47:31.810Z,37.43
2018-07-27T13:50:02.460Z,37.21
2018-07-27T13:52:32.857Z,37.64
2018-07-27T13:55:03.603Z,37.56
2018-07-27T13:57:34.133Z,37.13
2018-07-27T14:00:04.554Z,37.65
2018-07-27T14:02:34.850Z,37.52
2018-07-27T14:05:05.385Z,37.30
2018-07-27T14:07:36.065Z,36.87
2018-07-27T14:10:07.509Z,36.57
2018-07-27T14:12:38.023Z,35.64
2018-07-27T14:15:08.337Z,35.39
2018-07-27T14:17:38.793Z,34.74
2018-07-27T14:20:09.202Z,34.05
2018-07-27T14:22:39.454Z,34.46
2018-07-27T14:25:10.069Z,34.49
2018-07-27T14:27:40.308Z,34.30
2018-07-27T14:30:10.876Z,33.38
2018-07-27T14:32:41.105Z,33.46
2018-07-27T14:35:11.356Z,33.56
2018-07-27T14:37:41.773Z,32.92
2018-07-27T14:40:12.208Z,32.67
2018-07-27T14:42:43.032Z,32.10
2018-07-27T14:45:13.411Z,32.30
2018-07-27T14:47:43.749Z,31.71
2018-07-27T14:50:14.121Z,30.91
2018-07-27T14:52:44.894Z,30.62
2018-07-27T14:55:15.273Z,29.84
2018-07-27T14:57:45.696Z,30.06
2018-07-27T15:00:15.987Z,30.01
2018-07-27T15:02:46.292Z,29.89
2018-07-27T15:05:17.060Z,29.39
2018-07-27T15:07:47.313Z,29.38
2018-07-27T15:10:17.658Z,29.36
2018-07-27T15:12:48.157Z,29.40
2018-07-27T15:15:19.136Z,29.18
2018-07-27T15:17:49.502Z,28.92
2018-07-27T15:20:19.882Z,28.73
2018-07-27T15:22:50.113Z,28.64
2018-07-27T15:25:20.816Z,28.76
2018-07-27T15:27:51.097Z,28.68
2018-07-27T15:30:21.814Z,28.71
2018-07-27T15:32:52.442Z,28.48
2018-07-27T15:35:23.430Z,28.99
2018-07-27T15:37:54.065Z,28.78
2018-07-27T15:40:24.850Z,28.76
2018-07-27T15:42:55.377Z,28.80
2018-07-27T15:45:26.311Z,28.81
2018-07-27T15:47:56.419Z,28.68
2018-07-27T15:50:30.079Z,28.53
2018-07-27T15:53:03.878Z,28.71
2018-07-27T15:55:34.694Z,28.69
2018-07-27T15:58:05.066Z,28.54
2018-07-27T16:00:35.733Z,28.86
2018-07-27T16:03:06.452Z,28.98
2018-07-27T16:05:37.102Z,28.81
2018-07-27T16:08:07.734Z,28.83
2018-07-27T16:10:38.589Z,28.93
2018-07-27T16:13:09.084Z,29.12
2018-07-27T16:15:39.846Z,28.97
2018-07-27T16:18:10.722Z,29.18
2018-07-27T16:20:41.555Z,28.89
2018-07-27T16:23:12.218Z,29.01
2018-07-27T16:25:42.967Z,28.95
2018-07-27T16:28:13.584Z,29.06
2018-07-27T16:30:44.657Z,29.06
2018-07-27T16:33:15.431Z,29.22
2018-07-27T16:35:46.139Z,29.40
2018-07-27T16:38:17.294Z,29.32
2018-07-27T16:40:48.298Z,29.12
2018-07-27T16:43:18.983Z,29.31
2018-07-27T16:45:50.033Z,29.68
2018-07-27T16:48:20.612Z,29.66
2018-07-27T16:50:51.514Z,29.84
2018-07-27T16:53:21.946Z,29.60
2018-07-27T16:55:53.006Z,29.12
2018-07-27T16:58:23.179Z,29.27
2018-07-27T17:00:54.098Z,29.05
2018-07-27T17:03:24.738Z,29.12
2018-07-27T17:05:55.392Z,28.70
2018-07-27T17:08:25.937Z,28.79
2018-07-27T17:10:56.112Z,28.79
2018-07-27T17:13:26.548Z,28.87
2018-07-27T17:15:57.285Z,28.86
2018-07-27T17:18:27.825Z,28.96
2018-07-27T17:20:58.538Z,29.14
2018-07-27T17:23:29.161Z,28.95
2018-07-27T17:26:00.865Z,28.97
2018-07-27T17:28:31.049Z,28.79
2018-07-27T17:31:01.733Z,28.72
2018-07-27T17:33:32.361Z,28.77
2018-07-27T17:36:03.021Z,28.70
2018-07-27T17:38:33.697Z,28.71
2018-07-27T17:41:04.607Z,28.89
2018-07-27T17:43:35.293Z,28.91
2018-07-27T17:46:06.787Z,28.96
2018-07-27T17:48:37.350Z,28.75
2018-07-27T17:51:08.092Z,28.85
2018-07-27T17:53:38.729Z,28.96
2018-07-27T17:56:09.492Z,29.01
2018-07-27T17:58:40.093Z,29.13
2018-07-27T18:01:10.948Z,29.11
2018-07-27T18:03:41.618Z,28.88
2018-07-27T18:06:12.655Z,28.88
2018-07-27T18:08:43.232Z,28.73
2018-07-27T18:11:13.964Z,28.71
2018-07-27T18:13:44.593Z,29.08
2018-07-27T18:16:15.550Z,28.91
2018-07-27T18:18:46.123Z,28.93
2018-07-27T18:21:16.954Z,28.98
2018-07-27T18:23:47.532Z,29.09
2018-07-27T18:26:18.421Z,28.98
2018-07-27T18:28:49.114Z,28.92
2018-07-27T18:31:19.792Z,28.87
2018-07-27T18:33:50.571Z,28.89
2018-07-27T18:36:21.409Z,28.71
2018-07-27T18:38:52.133Z,28.52
2018-07-27T18:41:22.276Z,28.68
2018-07-27T18:43:52.961Z,28.73
2018-07-27T18:46:23.844Z,28.75
2018-07-27T18:48:54.353Z,28.51
2018-07-27T18:51:27.274Z,28.86
2018-07-27T18:53:58.022Z,28.79
2018-07-27T18:56:28.821Z,28.85
2018-07-27T18:58:59.417Z,28.95
2018-07-27T19:01:30.274Z,28.76
2018-07-27T19:04:00.829Z,28.87
2018-07-27T19:06:31.580Z,28.81
2018-07-27T19:09:02.133Z,28.76
2018-07-27T19:11:32.864Z,28.79
2018-07-27T19:14:03.344Z,28.76
2018-07-27T19:16:33.932Z,28.52
2018-07-27T19:19:04.401Z,28.31
2018-07-27T19:21:35.060Z,28.52
2018-07-27T19:24:05.641Z,28.39
2018-07-27T19:26:36.648Z,28.37
2018-07-27T19:29:07.578Z,28.46
2018-07-27T19:31:38.297Z,28.44
2018-07-27T19:34:08.892Z,28.39
2018-07-27T19:36:39.795Z,28.35
2018-07-27T19:39:12.568Z,28.48
2018-07-27T19:41:43.412Z,28.44
2018-07-27T19:44:14.049Z,28.55
2018-07-27T19:46:45.057Z,28.41
2018-07-27T19:49:15.686Z,28.40
2018-07-27T19:51:46.264Z,28.19
2018-07-27T19:54:16.914Z,27.76
2018-07-27T19:56:47.799Z,27.58
2018-07-27T19:59:18.431Z,27.62
2018-07-27T20:01:49.041Z,27.76
2018-07-27T20:04:19.350Z,27.78
2018-07-27T20:06:49.879Z,27.56
2018-07-27T20:09:20.688Z,27.49
2018-07-27T20:11:50.640Z,27.48
2018-07-27T20:14:21.430Z,27.66
2018-07-27T20:16:52.037Z,27.67
2018-07-27T20:19:23.226Z,27.73
2018-07-27T20:21:53.929Z,27.90
2018-07-27T20:24:24.709Z,27.79
2018-07-27T20:26:57.950Z,28.02
2018-07-27T20:29:28.773Z,27.75
2018-07-27T20:32:06.711Z,27.76
2018-07-27T20:35:02.636Z,27.65
2018-07-27T20:37:33.322Z,27.65
2018-07-27T20:40:04.183Z,27.50
2018-07-27T20:42:34.832Z,27.67
2018-07-27T20:45:13.116Z,27.68
2018-07-27T20:47:43.920Z,27.63
2018-07-27T20:50:15.802Z,27.50
2018-07-27T20:52:47.670Z,27.54
2018-07-27T20:55:18.964Z,27.66
2018-07-27T20:57:50.650Z,27.77
2018-07-27T21:00:21.464Z,27.82
2018-07-27T21:02:52.630Z,27.89
2018-07-27T21:05:23.416Z,27.65
2018-07-27T21:07:55.872Z,27.52
2018-07-27T21:10:26.709Z,27.43
2018-07-27T21:12:57.605Z,27.51
2018-07-27T21:15:29.672Z,27.47
2018-07-27T21:18:00.573Z,27.66
2018-07-27T21:20:39.070Z,27.28
2018-07-27T21:23:10.973Z,27.39
2018-07-27T21:25:42.951Z,27.45
2018-07-27T21:28:13.729Z,27.44
2018-07-27T21:30:44.912Z,27.32
2018-07-27T21:33:15.590Z,27.31
2018-07-27T21:35:46.401Z,27.36
2018-07-27T21:38:17.130Z,27.36
2018-07-27T21:40:47.914Z,27.45
2018-07-27T21:43:18.541Z,27.38
2018-07-27T21:45:49.309Z,27.32
2018-07-27T21:48:19.944Z,27.25
2018-07-27T21:50:50.793Z,27.28
2018-07-27T21:53:21.073Z,27.19
2018-07-27T21:55:51.481Z,27.13
2018-07-27T21:58:21.728Z,27.25
2018-07-27T22:00:52.560Z,27.25
2018-07-27T22:03:23.208Z,27.22
2018-07-27T22:05:53.951Z,27.11
2018-07-27T22:08:26.109Z,27.09
2018-07-27T22:10:56.869Z,27.13
2018-07-27T22:13:49.852Z,27.34
2018-07-27T22:16:20.551Z,27.32
2018-07-27T22:18:50.800Z,27.35
2018-07-27T22:21:21.290Z,27.29
2018-07-27T22:23:51.581Z,27.38
2018-07-27T22:26:22.061Z,27.33
2018-07-27T22:28:54.357Z,27.41
2018-07-27T22:31:27.730Z,27.39
2018-07-27T22:33:58.021Z,27.42
2018-07-27T22:36:28.296Z,27.50
2018-07-27T22:38:58.993Z,27.38
2018-07-27T22:41:29.859Z,27.23
2018-07-27T22:44:00.520Z,27.14
2018-07-27T22:46:31.146Z,27.12
2018-07-27T22:49:01.947Z,27.16
2018-07-27T22:51:33.080Z,26.97
2018-07-27T22:54:03.873Z,27.08
2018-07-27T22:56:34.717Z,27.38
2018-07-27T22:59:05.400Z,27.56
2018-07-27T23:01:38.177Z,27.52
2018-07-27T23:04:09.117Z,27.50
2018-07-27T23:06:40.630Z,27.36
2018-07-27T23:09:12.175Z,27.38
2018-07-27T23:11:42.838Z,27.40
2018-07-27T23:14:13.612Z,27.14
2018-07-27T23:16:44.302Z,27.29
2018-07-27T23:19:14.900Z,27.09
2018-07-27T23:21:46.101Z,27.40
2018-07-27T23:24:16.680Z,27.40
2018-07-27T23:26:47.850Z,27.28
2018-07-27T23:29:18.969Z,27.20
2018-07-27T23:31:49.748Z,27.26
2018-07-27T23:34:20.477Z,27.13
2018-07-27T23:36:51.082Z,27.07
2018-07-27T23:39:21.358Z,26.92
2018-07-27T23:41:51.870Z,26.99
2018-07-27T23:44:22.116Z,27.04
2018-07-27T23:46:52.364Z,27.09
2018-07-27T23:49:22.685Z,27.33
2018-07-27T23:51:53.151Z,26.67
2018-07-27T23:54:23.458Z,26.87
2018-07-27T23:56:53.744Z,27.16
2018-07-27T23:59:24.226Z,27.39
